createdAt,value
2023-08-29T00:00:11.571Z,25.02
2023-08-29T00:03:04.635Z,24.53
2023-08-29T00:05:50.084Z,23.89
2023-08-29T00:08:35.781Z,23.88
2023-08-29T00:11:22.289Z,24.66
2023-08-29T00:14:07.590Z,24.88
2023-08-29T00:16:53.036Z,24.97
2023-08-29T00:19:38.962Z,24.90
2023-08-29T00:22:24.859Z,24.13
2023-08-29T00:25:10.338Z,24.98
2023-08-29T00:27:55.746Z,23.94
2023-08-29T00:30:44.574Z,24.93
2023-08-29T00:33:31.192Z,24.93
2023-08-29T00:36:18.668Z,24.07
2023-08-29T00:39:05.091Z,24.18
2023-08-29T00:41:50.977Z,24.83
2023-08-29T00:44:36.828Z,24.70
2023-08-29T00:47:22.818Z,24.73
2023-08-29T00:50:09.860Z,24.67
2023-08-29T00:52:59.656Z,24.31
2023-08-29T00:55:45.176Z,24.57
2023-08-29T00:58:31.418Z,23.52
2023-08-29T01:01:18.584Z,24.53
2023-08-29T01:04:05.323Z,24.23
2023-08-29T01:06:51.512Z,24.53
2023-08-29T01:09:36.862Z,24.55
2023-08-29T01:12:36.566Z,23.49
2023-08-29T01:15:28.851Z,23.89
2023-08-29T01:18:17.121Z,24.29
2023-08-29T01:21:16.123Z,23.55
2023-08-29T01:24:22.032Z,24.58
2023-08-29T01:27:09.259Z,24.58
2023-08-29T01:29:57.310Z,23.61
2023-08-29T01:32:46.095Z,24.59
2023-08-29T01:35:32.778Z,24.59
2023-08-29T01:38:18.979Z,24.57
2023-08-29T01:41:05.439Z,23.63
2023-08-29T01:43:53.158Z,24.58
2023-08-29T01:46:39.566Z,24.55
2023-08-29T01:49:26.264Z,24.52
2023-08-29T01:52:11.928Z,24.45
2023-08-29T01:54:59.786Z,24.26
2023-08-29T01:57:47.664Z,24.36
2023-08-29T02:00:34.358Z,24.39
2023-08-29T02:03:24.506Z,24.18
2023-08-29T02:06:12.312Z,24.42
2023-08-29T02:08:57.643Z,23.46
2023-08-29T02:11:43.659Z,24.42
2023-08-29T02:14:29.612Z,24.23
2023-08-29T02:17:15.582Z,24.42
2023-08-29T02:20:01.312Z,24.38
2023-08-29T02:22:46.937Z,24.32
2023-08-29T02:25:32.987Z,24.33
2023-08-29T02:28:19.044Z,23.51
2023-08-29T02:31:11.492Z,24.32
2023-08-29T02:33:57.258Z,24.21
2023-08-29T02:36:43.868Z,23.83
2023-08-29T02:39:30.205Z,24.25
2023-08-29T02:42:15.970Z,23.14
2023-08-29T02:45:01.765Z,24.21
2023-08-29T02:47:47.744Z,24.09
2023-08-29T02:50:35.046Z,23.90
2023-08-29T02:53:21.919Z,24.15
2023-08-29T02:56:07.296Z,24.15
2023-08-29T02:58:53.487Z,23.82
2023-08-29T03:01:39.611Z,24.08
2023-08-29T03:04:25.270Z,24.16
2023-08-29T03:07:11.110Z,23.65
2023-08-29T03:09:57.060Z,23.43
2023-08-29T03:12:42.973Z,24.10
2023-08-29T03:15:35.837Z,24.07
2023-08-29T03:18:21.190Z,24.01
2023-08-29T03:21:10.800Z,23.23
2023-08-29T03:23:56.902Z,23.95
2023-08-29T03:26:42.279Z,23.66
2023-08-29T03:29:27.679Z,23.90
2023-08-29T03:32:14.006Z,23.59
2023-08-29T03:34:59.869Z,23.80
2023-08-29T03:37:46.116Z,23.67
2023-08-29T03:40:31.853Z,23.57
2023-08-29T03:43:17.433Z,23.52
2023-08-29T03:46:07.663Z,23.44
2023-08-29T03:48:53.253Z,23.40
2023-08-29T03:51:38.700Z,22.43
2023-08-29T03:54:24.187Z,23.31
2023-08-29T03:57:09.796Z,23.27
2023-08-29T03:59:55.462Z,23.03
2023-08-29T04:02:41.541Z,23.31
2023-08-29T04:05:28.568Z,22.75
2023-08-29T04:08:13.842Z,23.33
2023-08-29T04:11:04.670Z,23.24
2023-08-29T04:13:51.047Z,23.14
2023-08-29T04:16:37.558Z,23.23
2023-08-29T04:19:24.214Z,22.68
2023-08-29T04:22:09.905Z,22.52
2023-08-29T04:24:55.328Z,23.15
2023-08-29T04:27:41.136Z,23.57
2023-08-29T04:30:26.720Z,23.63
2023-08-29T04:33:12.309Z,23.71
2023-08-29T04:35:58.062Z,23.75
2023-08-29T04:38:46.396Z,23.80
2023-08-29T04:41:31.757Z,23.85
2023-08-29T04:44:17.611Z,23.89
2023-08-29T04:47:05.094Z,24.06
2023-08-29T04:49:51.060Z,24.07
2023-08-29T04:52:37.705Z,24.30
2023-08-29T04:55:23.405Z,24.44
2023-08-29T04:58:09.940Z,24.58
2023-08-29T05:00:56.260Z,24.70
2023-08-29T05:03:42.722Z,23.82
2023-08-29T05:06:28.417Z,24.08
2023-08-29T05:09:14.774Z,25.29
2023-08-29T05:12:00.650Z,24.55
2023-08-29T05:14:46.356Z,25.78
2023-08-29T05:17:32.038Z,25.38
2023-08-29T05:20:18.490Z,26.11
2023-08-29T05:23:04.351Z,26.46
2023-08-29T05:25:50.752Z,25.96
2023-08-29T05:28:36.394Z,26.67
2023-08-29T05:31:22.850Z,26.96
2023-08-29T05:34:09.002Z,27.16
2023-08-29T05:36:55.046Z,27.15
2023-08-29T05:39:40.934Z,27.42
2023-08-29T05:42:28.548Z,27.35
2023-08-29T05:45:16.603Z,27.63
2023-08-29T05:48:03.145Z,27.51
2023-08-29T05:50:52.551Z,27.86
2023-08-29T05:53:38.476Z,28.06
2023-08-29T05:56:24.583Z,28.19
2023-08-29T05:59:10.045Z,28.22
2023-08-29T06:01:55.870Z,28.19
2023-08-29T06:04:41.697Z,28.51
2023-08-29T06:07:27.787Z,28.59
2023-08-29T06:10:13.879Z,28.65
2023-08-29T06:12:59.995Z,28.80
2023-08-29T06:15:46.691Z,28.92
2023-08-29T06:18:34.552Z,28.97
2023-08-29T06:21:22.000Z,29.05
2023-08-29T06:24:08.321Z,29.03
2023-08-29T06:26:54.012Z,28.48
2023-08-29T06:29:40.426Z,28.94
2023-08-29T06:32:27.214Z,28.00
2023-08-29T06:35:12.905Z,28.89
2023-08-29T06:37:58.138Z,28.51
2023-08-29T06:40:44.005Z,27.98
2023-08-29T06:43:31.301Z,28.86
2023-08-29T06:46:17.495Z,28.07
2023-08-29T06:49:03.769Z,29.01
2023-08-29T06:51:51.220Z,29.06
2023-08-29T06:54:37.758Z,29.16
2023-08-29T06:57:23.282Z,28.33
2023-08-29T07:00:12.181Z,29.18
2023-08-29T07:02:57.796Z,29.05
2023-08-29T07:05:43.084Z,28.39
2023-08-29T07:08:28.589Z,29.15
2023-08-29T07:11:15.255Z,29.24
2023-08-29T07:14:00.840Z,28.43
2023-08-29T07:16:53.558Z,29.12
2023-08-29T07:19:50.034Z,28.89
2023-08-29T07:22:41.782Z,29.33
2023-08-29T07:25:40.175Z,28.74
2023-08-29T07:28:26.369Z,29.70
2023-08-29T07:31:12.275Z,29.75
2023-08-29T07:33:57.652Z,29.87
2023-08-29T07:36:44.382Z,29.81
2023-08-29T07:39:29.879Z,30.12
2023-08-29T07:42:15.661Z,30.05
2023-08-29T07:45:01.561Z,30.05
2023-08-29T07:47:46.916Z,29.55
2023-08-29T07:50:32.405Z,30.12
2023-08-29T07:53:17.890Z,30.63
2023-08-29T07:56:04.425Z,30.55
2023-08-29T07:58:50.680Z,30.77
2023-08-29T08:01:36.523Z,30.79
2023-08-29T08:04:22.366Z,30.79
2023-08-29T08:07:08.105Z,30.81
2023-08-29T08:09:53.424Z,30.06
2023-08-29T08:12:41.292Z,30.88
2023-08-29T08:15:26.803Z,30.09
2023-08-29T08:18:12.374Z,30.95
2023-08-29T08:20:57.820Z,30.92
2023-08-29T08:23:43.348Z,30.22
2023-08-29T08:26:28.813Z,31.12
2023-08-29T08:29:14.362Z,31.15
2023-08-29T08:32:00.174Z,31.07
2023-08-29T08:34:46.031Z,31.25
2023-08-29T08:37:36.230Z,31.10
2023-08-29T08:40:22.045Z,30.50
2023-08-29T08:43:10.788Z,31.40
2023-08-29T08:45:57.900Z,31.31
2023-08-29T08:48:43.962Z,31.55
2023-08-29T08:51:31.861Z,31.60
2023-08-29T08:54:17.390Z,31.70
2023-08-29T08:57:02.686Z,31.63
2023-08-29T08:59:48.228Z,31.19
2023-08-29T09:02:35.304Z,31.60
2023-08-29T09:05:22.012Z,31.98
2023-08-29T09:08:08.186Z,31.11
2023-08-29T09:10:54.580Z,30.99
2023-08-29T09:13:50.048Z,31.87
2023-08-29T09:16:39.373Z,31.91
2023-08-29T09:19:26.057Z,31.91
2023-08-29T09:22:12.003Z,31.27
2023-08-29T09:25:04.312Z,31.92
2023-08-29T09:27:50.386Z,31.79
2023-08-29T09:30:42.652Z,31.98
2023-08-29T09:33:28.810Z,31.98
2023-08-29T09:36:14.641Z,32.01
2023-08-29T09:39:00.188Z,32.06
2023-08-29T09:41:59.535Z,31.74
2023-08-29T09:44:45.206Z,32.05
2023-08-29T09:47:30.637Z,32.11
2023-08-29T09:50:16.358Z,32.11
2023-08-29T09:53:02.904Z,32.10
2023-08-29T09:55:55.282Z,32.03
2023-08-29T09:58:42.646Z,31.41
2023-08-29T10:01:29.073Z,32.24
2023-08-29T10:04:22.270Z,32.28
2023-08-29T10:07:13.442Z,32.29
2023-08-29T10:10:00.372Z,31.78
2023-08-29T10:12:47.296Z,32.48
2023-08-29T10:15:38.646Z,32.62
2023-08-29T10:18:27.128Z,32.67
2023-08-29T10:21:13.966Z,32.48
2023-08-29T10:24:00.856Z,32.06
2023-08-29T10:26:47.134Z,32.73
2023-08-29T10:29:33.858Z,32.29
2023-08-29T10:32:21.095Z,32.71
2023-08-29T10:35:07.839Z,32.74
2023-08-29T10:37:54.041Z,31.94
2023-08-29T10:40:40.374Z,32.72
2023-08-29T10:43:27.288Z,32.79
2023-08-29T10:46:15.402Z,32.94
2023-08-29T10:49:00.665Z,32.97
2023-08-29T10:52:12.595Z,33.03
2023-08-29T10:55:22.465Z,33.06
2023-08-29T10:58:38.874Z,33.10
2023-08-29T11:01:28.391Z,33.13
2023-08-29T11:04:17.624Z,33.03
2023-08-29T11:07:03.675Z,33.20
2023-08-29T11:09:49.694Z,33.22
2023-08-29T11:12:35.438Z,33.06
2023-08-29T11:15:22.381Z,33.24
2023-08-29T11:18:28.381Z,33.25
2023-08-29T11:21:18.981Z,33.08
2023-08-29T11:26:58.544Z,33.09
2023-08-29T11:29:45.099Z,33.27
2023-08-29T11:32:31.593Z,33.26
2023-08-29T11:35:17.300Z,33.30
2023-08-29T11:38:03.177Z,33.33
2023-08-29T11:40:56.205Z,33.37
2023-08-29T11:44:33.966Z,33.45
2023-08-29T11:47:02.777Z,33.50
2023-08-29T11:49:57.144Z,33.59
2023-08-29T11:52:43.081Z,33.50
2023-08-29T11:55:32.421Z,33.60
2023-08-29T11:58:18.848Z,33.59
2023-08-29T12:01:06.115Z,33.45
2023-08-29T12:03:52.233Z,33.58
2023-08-29T12:06:38.025Z,33.58
2023-08-29T12:09:24.584Z,33.03
2023-08-29T12:12:33.933Z,33.61
2023-08-29T12:15:30.900Z,33.61
2023-08-29T12:18:26.597Z,32.93
2023-08-29T12:21:19.908Z,33.43
2023-08-29T12:24:11.044Z,33.63
2023-08-29T12:26:56.593Z,32.88
2023-08-29T12:29:42.455Z,33.33
2023-08-29T12:32:29.452Z,33.62
2023-08-29T12:35:16.972Z,33.42
2023-08-29T12:38:03.401Z,32.87
2023-08-29T12:40:48.979Z,33.45
2023-08-29T12:43:34.219Z,33.50
2023-08-29T12:46:20.593Z,33.37
2023-08-29T12:49:06.363Z,33.58
2023-08-29T12:51:52.146Z,33.37
2023-08-29T12:54:38.268Z,33.59
2023-08-29T12:57:24.228Z,33.61
2023-08-29T13:00:11.592Z,33.62
2023-08-29T13:02:58.704Z,32.78
2023-08-29T13:05:44.925Z,33.62
2023-08-29T13:08:30.409Z,33.55
2023-08-29T13:11:16.124Z,33.62
2023-08-29T13:14:02.224Z,33.61
2023-08-29T13:16:47.997Z,33.53
2023-08-29T13:19:34.885Z,33.61
2023-08-29T13:22:22.093Z,33.61
2023-08-29T13:25:11.842Z,33.56
2023-08-29T13:27:58.988Z,33.55
2023-08-29T13:30:44.877Z,33.56
2023-08-29T13:33:32.228Z,33.55
2023-08-29T13:36:18.047Z,33.25
2023-08-29T13:39:03.884Z,33.56
2023-08-29T13:41:49.956Z,33.16
2023-08-29T13:44:36.209Z,32.88
2023-08-29T13:47:21.947Z,33.37
2023-08-29T13:50:08.858Z,33.52
2023-08-29T13:52:57.163Z,32.42
2023-08-29T13:55:43.429Z,33.51
2023-08-29T13:58:29.280Z,33.54
2023-08-29T14:01:14.838Z,33.01
2023-08-29T14:04:00.590Z,33.18
2023-08-29T14:06:45.905Z,33.58
2023-08-29T14:09:31.603Z,32.98
2023-08-29T14:12:17.109Z,33.58
2023-08-29T14:15:03.009Z,33.42
2023-08-29T14:17:51.798Z,33.50
2023-08-29T14:20:45.671Z,33.65
2023-08-29T14:23:31.341Z,33.45
2023-08-29T14:26:17.025Z,32.94
2023-08-29T14:29:02.721Z,33.62
2023-08-29T14:31:48.564Z,33.63
2023-08-29T14:34:34.107Z,33.55
2023-08-29T14:37:19.716Z,33.58
2023-08-29T14:40:06.276Z,33.62
2023-08-29T14:42:51.732Z,33.58
2023-08-29T14:45:41.320Z,33.44
2023-08-29T14:48:27.012Z,33.50
2023-08-29T14:51:12.675Z,33.06
2023-08-29T14:54:03.535Z,33.45
2023-08-29T14:56:49.520Z,33.37
2023-08-29T14:59:35.575Z,33.31
2023-08-29T15:02:21.282Z,33.16
2023-08-29T15:05:07.593Z,32.56
2023-08-29T15:07:53.480Z,33.03
2023-08-29T15:10:39.102Z,32.41
2023-08-29T15:13:29.626Z,32.91
2023-08-29T15:16:17.379Z,33.06
2023-08-29T15:19:03.514Z,32.09
2023-08-29T15:21:49.257Z,32.90
2023-08-29T15:24:34.910Z,32.83
2023-08-29T15:27:21.050Z,32.73
2023-08-29T15:30:09.424Z,32.61
2023-08-29T15:32:56.759Z,32.55
2023-08-29T15:35:46.982Z,31.51
2023-08-29T15:38:34.922Z,32.39
2023-08-29T15:41:22.945Z,32.28
2023-08-29T15:44:08.748Z,32.18
2023-08-29T15:46:55.114Z,32.05
2023-08-29T15:49:41.816Z,31.95
2023-08-29T15:52:27.749Z,31.46
2023-08-29T15:55:13.737Z,31.49
2023-08-29T15:58:00.539Z,31.59
2023-08-29T16:00:46.256Z,31.51
2023-08-29T16:03:32.356Z,31.39
2023-08-29T16:06:18.669Z,31.16
2023-08-29T16:09:04.573Z,31.14
2023-08-29T16:11:51.633Z,30.95
2023-08-29T16:14:37.349Z,30.17
2023-08-29T16:17:23.057Z,31.01
2023-08-29T16:20:12.890Z,30.92
2023-08-29T16:22:59.482Z,30.62
2023-08-29T16:25:45.138Z,30.39
2023-08-29T16:28:31.738Z,30.25
2023-08-29T16:31:17.230Z,29.33
2023-08-29T16:34:03.655Z,29.95
2023-08-29T16:36:49.496Z,29.96
2023-08-29T16:39:34.984Z,29.87
2023-08-29T16:42:21.112Z,29.02
2023-08-29T16:45:07.686Z,29.50
2023-08-29T16:47:55.522Z,29.57
2023-08-29T16:50:41.405Z,29.45
2023-08-29T16:53:27.153Z,29.12
2023-08-29T16:56:13.002Z,28.48
2023-08-29T16:59:00.263Z,29.32
2023-08-29T17:01:45.840Z,28.97
2023-08-29T17:04:31.459Z,29.30
2023-08-29T17:07:17.062Z,28.98
2023-08-29T17:10:02.979Z,28.98
2023-08-29T17:12:48.555Z,27.50
2023-08-29T17:15:34.209Z,28.48
2023-08-29T17:18:23.013Z,28.29
2023-08-29T17:21:08.704Z,28.27
2023-08-29T17:23:54.284Z,27.44
2023-08-29T17:26:40.938Z,27.88
2023-08-29T17:29:27.162Z,27.77
2023-08-29T17:32:12.934Z,27.37
2023-08-29T17:34:59.167Z,27.50
2023-08-29T17:37:45.626Z,27.43
2023-08-29T17:40:31.159Z,27.20
2023-08-29T17:43:16.513Z,27.33
2023-08-29T17:46:03.586Z,26.30
2023-08-29T17:48:50.076Z,27.19
2023-08-29T17:51:36.606Z,26.96
2023-08-29T17:54:22.423Z,26.86
2023-08-29T17:57:08.251Z,26.67
2023-08-29T17:59:55.730Z,26.60
2023-08-29T18:02:41.852Z,26.68
2023-08-29T18:05:27.842Z,26.67
2023-08-29T18:08:14.092Z,26.76
2023-08-29T18:11:00.029Z,26.53
2023-08-29T18:13:46.250Z,26.75
2023-08-29T18:16:31.756Z,26.80
2023-08-29T18:19:18.199Z,26.75
2023-08-29T18:22:04.117Z,26.71
2023-08-29T18:24:49.789Z,26.66
2023-08-29T18:27:36.231Z,26.24
2023-08-29T18:30:22.326Z,26.47
2023-08-29T18:33:08.277Z,26.16
2023-08-29T18:35:54.317Z,26.19
2023-08-29T18:38:40.214Z,26.14
2023-08-29T18:41:26.019Z,25.92
2023-08-29T18:44:11.999Z,25.64
2023-08-29T18:46:57.409Z,26.13
2023-08-29T18:49:43.312Z,26.05
2023-08-29T18:52:29.731Z,25.71
2023-08-29T18:55:15.410Z,26.01
2023-08-29T18:58:00.702Z,26.03
2023-08-29T19:00:49.080Z,26.08
2023-08-29T19:03:35.407Z,25.96
2023-08-29T19:06:21.840Z,26.15
2023-08-29T19:09:07.905Z,26.16
2023-08-29T19:11:53.701Z,25.99
2023-08-29T19:14:40.021Z,25.23
2023-08-29T19:17:26.869Z,26.21
2023-08-29T19:20:12.537Z,25.95
2023-08-29T19:22:58.521Z,26.18
2023-08-29T19:25:43.809Z,25.06
2023-08-29T19:28:29.075Z,24.95
2023-08-29T19:31:16.420Z,25.10
2023-08-29T19:34:02.080Z,25.93
2023-08-29T19:36:47.598Z,25.95
2023-08-29T19:39:33.438Z,25.29
2023-08-29T19:42:19.212Z,25.79
2023-08-29T19:45:05.452Z,24.95
2023-08-29T19:47:52.169Z,25.96
2023-08-29T19:50:38.015Z,25.84
2023-08-29T19:53:24.096Z,24.80
2023-08-29T19:56:15.925Z,25.70
2023-08-29T19:59:04.697Z,25.58
2023-08-29T20:01:51.052Z,25.26
2023-08-29T20:04:36.785Z,23.91
2023-08-29T20:07:23.158Z,24.33
2023-08-29T20:10:09.208Z,24.12
2023-08-29T20:12:55.417Z,23.83
2023-08-29T20:15:45.420Z,24.40
2023-08-29T20:18:31.389Z,24.71
2023-08-29T20:21:18.160Z,24.63
2023-08-29T20:24:05.004Z,23.67
2023-08-29T20:26:51.796Z,23.85
2023-08-29T20:29:37.534Z,24.18
2023-08-29T20:32:23.760Z,24.20
2023-08-29T20:35:09.578Z,23.15
2023-08-29T20:37:58.765Z,23.48
2023-08-29T20:40:44.549Z,24.28
2023-08-29T20:43:31.246Z,24.26
2023-08-29T20:46:17.163Z,24.18
2023-08-29T20:49:03.512Z,24.10
2023-08-29T20:51:49.551Z,23.88
2023-08-29T20:54:36.713Z,23.17
2023-08-29T20:57:22.732Z,23.83
2023-08-29T21:00:09.252Z,23.64
2023-08-29T21:02:56.288Z,23.83
2023-08-29T21:05:42.373Z,23.65
2023-08-29T21:08:28.726Z,20.37
2023-08-29T21:11:14.394Z,22.89
2023-08-29T21:14:00.172Z,23.86
2023-08-29T21:16:47.385Z,23.92
2023-08-29T21:19:33.212Z,23.92
2023-08-29T21:22:19.443Z,23.76
2023-08-29T21:25:05.969Z,24.08
2023-08-29T21:27:52.179Z,23.48
2023-08-29T21:30:40.397Z,24.15
2023-08-29T21:33:25.892Z,24.10
2023-08-29T21:36:11.640Z,24.12
2023-08-29T21:39:03.420Z,24.13
2023-08-29T21:41:49.496Z,24.11
2023-08-29T21:44:35.042Z,23.15
2023-08-29T21:47:20.961Z,23.98
2023-08-29T21:50:08.079Z,23.72
2023-08-29T21:52:54.024Z,22.84
2023-08-29T21:55:41.899Z,22.79
2023-08-29T21:58:27.800Z,23.04
2023-08-29T22:01:13.425Z,23.85
2023-08-29T22:03:58.956Z,23.78
2023-08-29T22:06:44.817Z,22.68
2023-08-29T22:09:30.171Z,23.60
2023-08-29T22:12:15.627Z,23.68
2023-08-29T22:15:00.982Z,23.68
2023-08-29T22:17:46.489Z,23.55
2023-08-29T22:20:32.505Z,23.58
2023-08-29T22:23:17.952Z,22.61
2023-08-29T22:26:09.838Z,23.50
2023-08-29T22:28:55.487Z,23.04
2023-08-29T22:31:41.390Z,23.52
2023-08-29T22:34:27.625Z,23.47
2023-08-29T22:37:17.080Z,23.42
2023-08-29T22:40:03.372Z,22.52
2023-08-29T22:42:49.698Z,23.39
2023-08-29T22:45:35.231Z,23.10
2023-08-29T22:48:20.980Z,22.47
2023-08-29T22:51:07.746Z,23.26
2023-08-29T22:53:53.974Z,23.23
2023-08-29T22:56:39.835Z,23.26
2023-08-29T22:59:27.221Z,22.20
2023-08-29T23:02:13.608Z,22.15
2023-08-29T23:04:59.314Z,23.07
2023-08-29T23:07:45.888Z,22.96
2023-08-29T23:10:32.998Z,23.01
2023-08-29T23:13:19.782Z,22.20
2023-08-29T23:16:05.753Z,23.12
2023-08-29T23:18:52.203Z,23.06
2023-08-29T23:21:39.058Z,23.19
2023-08-29T23:24:25.935Z,23.19
2023-08-29T23:27:12.540Z,23.22
2023-08-29T23:29:59.652Z,23.26
2023-08-29T23:32:49.216Z,23.16
2023-08-29T23:35:35.367Z,21.94
2023-08-29T23:38:21.668Z,21.98
2023-08-29T23:41:08.459Z,22.82
2023-08-29T23:43:55.539Z,22.78
2023-08-29T23:46:42.453Z,22.79
2023-08-29T23:49:29.032Z,22.78
2023-08-29T23:52:15.009Z,22.42
2023-08-29T23:55:00.473Z,22.61
